createdAt,value
2019-03-16T00:00:15.215Z,32.80
2019-03-16T00:02:42.461Z,32.80
2019-03-16T00:05:09.512Z,32.90
2019-03-16T00:07:36.599Z,32.90
2019-03-16T00:10:03.674Z,32.90
2019-03-16T00:12:30.720Z,32.90
2019-03-16T00:14:57.904Z,33.00
2019-03-16T00:17:24.987Z,33.00
2019-03-16T00:19:52.104Z,32.90
2019-03-16T00:22:19.186Z,32.90
2019-03-16T00:24:46.293Z,33.00
2019-03-16T00:27:13.334Z,32.90
2019-03-16T00:29:40.649Z,32.90
2019-03-16T00:32:13.310Z,32.90
2019-03-16T00:34:37.728Z,33.10
2019-03-16T00:39:53.595Z,33.00
2019-03-16T00:42:19.978Z,33.00
2019-03-16T00:47:38.596Z,33.00
2019-03-16T00:50:05.771Z,33.00
2019-03-16T00:52:33.432Z,33.00
2019-03-16T00:55:00.730Z,33.00
2019-03-16T00:57:28.039Z,33.10
2019-03-16T00:59:55.122Z,33.00
2019-03-16T01:02:27.314Z,33.00
2019-03-16T01:05:18.882Z,33.00
2019-03-16T01:07:46.237Z,33.10
2019-03-16T01:10:13.373Z,33.00
2019-03-16T01:12:40.638Z,33.00
2019-03-16T01:15:19.106Z,32.90
2019-03-16T01:17:46.442Z,32.90
2019-03-16T01:20:14.375Z,32.90
2019-03-16T01:22:42.038Z,32.90
2019-03-16T01:25:09.291Z,32.90
2019-03-16T01:27:36.430Z,32.90
2019-03-16T01:30:04.330Z,32.90
2019-03-16T01:32:40.476Z,32.80
2019-03-16T01:35:02.401Z,32.80
2019-03-16T01:37:29.454Z,32.90
2019-03-16T01:39:56.677Z,32.90
2019-03-16T01:42:26.694Z,32.90
2019-03-16T01:44:54.274Z,32.80
2019-03-16T01:47:21.537Z,32.80
2019-03-16T01:49:48.779Z,32.90
2019-03-16T01:52:16.062Z,32.90
2019-03-16T01:54:43.694Z,32.70
2019-03-16T01:57:12.580Z,32.80
2019-03-16T01:59:39.836Z,32.70
2019-03-16T02:02:07.338Z,32.70
2019-03-16T02:04:34.405Z,32.70
2019-03-16T02:07:01.548Z,32.80
2019-03-16T02:09:28.642Z,32.70
2019-03-16T02:11:55.691Z,32.80
2019-03-16T02:14:22.942Z,32.90
2019-03-16T02:16:50.328Z,32.80
2019-03-16T02:19:17.549Z,32.80
2019-03-16T02:21:46.725Z,32.80
2019-03-16T02:24:14.327Z,32.90
2019-03-16T02:26:41.363Z,32.80
2019-03-16T02:29:08.563Z,32.80
2019-03-16T02:31:35.758Z,32.80
2019-03-16T02:34:03.313Z,32.80
2019-03-16T02:36:33.814Z,32.80
2019-03-16T02:47:50.617Z,32.70
2019-03-16T02:50:17.736Z,32.70
2019-03-16T02:52:44.787Z,32.80
2019-03-16T02:55:11.835Z,32.70
2019-03-16T02:57:39.212Z,32.70
2019-03-16T03:00:06.479Z,32.70
2019-03-16T03:02:33.623Z,32.80
2019-03-16T03:05:00.961Z,32.70
2019-03-16T03:07:28.056Z,32.70
2019-03-16T03:09:55.209Z,32.80
2019-03-16T03:12:22.452Z,32.70
2019-03-16T03:14:49.528Z,32.70
2019-03-16T03:17:16.849Z,32.70
2019-03-16T03:19:44.130Z,32.70
2019-03-16T03:22:17.095Z,32.70
2019-03-16T03:24:44.853Z,32.80
2019-03-16T03:27:12.086Z,32.80
2019-03-16T03:29:39.355Z,32.80
2019-03-16T03:32:06.665Z,32.80
2019-03-16T03:34:33.946Z,32.80
2019-03-16T03:37:02.871Z,32.90
2019-03-16T03:39:30.399Z,32.80
2019-03-16T03:41:58.177Z,32.90
2019-03-16T03:47:19.291Z,32.90
2019-03-16T03:49:48.263Z,33.00
2019-03-16T03:52:15.706Z,32.90
2019-03-16T03:54:42.992Z,32.90
2019-03-16T03:57:10.119Z,32.90
2019-03-16T03:59:37.393Z,32.90
2019-03-16T04:02:04.562Z,32.90
2019-03-16T04:04:32.127Z,32.90
2019-03-16T04:06:59.515Z,33.00
2019-03-16T04:09:26.644Z,32.90
2019-03-16T04:11:54.072Z,32.90
2019-03-16T04:14:21.203Z,33.00
2019-03-16T04:16:48.266Z,32.90
2019-03-16T04:19:15.931Z,33.00
2019-03-16T04:21:45.428Z,32.90
2019-03-16T04:24:12.961Z,32.90
2019-03-16T04:26:40.140Z,32.90
2019-03-16T04:29:07.374Z,33.00
2019-03-16T04:31:34.599Z,32.90
2019-03-16T04:34:01.780Z,32.90
2019-03-16T04:36:29.129Z,32.90
2019-03-16T04:38:59.354Z,32.90
2019-03-16T04:41:32.152Z,32.90
2019-03-16T04:43:59.322Z,32.90
2019-03-16T04:46:26.597Z,32.90
2019-03-16T04:48:53.704Z,32.80
2019-03-16T04:51:20.764Z,32.90
2019-03-16T04:53:48.208Z,32.90
2019-03-16T04:56:17.085Z,32.90
2019-03-16T04:58:44.381Z,32.90
2019-03-16T05:01:13.251Z,32.80
2019-03-16T05:03:40.476Z,32.90
2019-03-16T05:06:07.637Z,32.90
2019-03-16T05:08:34.780Z,32.90
2019-03-16T05:11:20.380Z,32.90
2019-03-16T05:13:49.753Z,32.80
2019-03-16T05:16:17.136Z,32.80
2019-03-16T05:18:47.142Z,33.50
2019-03-16T05:21:14.235Z,32.80
2019-03-16T05:23:41.438Z,32.80
2019-03-16T05:26:08.639Z,32.80
2019-03-16T05:28:35.827Z,32.80
2019-03-16T05:31:03.000Z,32.80
2019-03-16T05:33:30.078Z,32.80
2019-03-16T05:36:03.811Z,32.80
2019-03-16T05:38:28.659Z,32.90
2019-03-16T05:40:55.973Z,32.70
2019-03-16T05:43:23.468Z,32.80
2019-03-16T05:45:50.619Z,32.80
2019-03-16T05:48:17.849Z,32.80
2019-03-16T05:50:45.037Z,32.80
2019-03-16T05:53:12.082Z,32.80
2019-03-16T05:55:39.526Z,32.90
2019-03-16T05:58:06.899Z,32.80
2019-03-16T06:00:37.661Z,32.80
2019-03-16T06:03:04.795Z,32.80
2019-03-16T06:05:31.920Z,32.80
2019-03-16T06:07:59.093Z,32.80
2019-03-16T06:10:40.231Z,32.90
2019-03-16T06:15:47.606Z,32.90
2019-03-16T06:18:14.698Z,32.80
2019-03-16T06:23:37.059Z,32.90
2019-03-16T06:26:04.311Z,32.80
2019-03-16T06:31:29.617Z,33.10
2019-03-16T06:33:56.684Z,33.10
2019-03-16T06:36:23.919Z,33.00
2019-03-16T06:38:51.089Z,33.00
2019-03-16T06:41:18.239Z,33.00
2019-03-16T06:43:45.486Z,33.40
2019-03-16T06:46:12.589Z,33.30
2019-03-16T06:48:39.673Z,33.20
2019-03-16T06:51:06.812Z,33.40
2019-03-16T06:53:33.885Z,33.50
2019-03-16T06:58:50.672Z,34.10
2019-03-16T07:01:17.814Z,33.60
2019-03-16T07:03:44.871Z,33.70
2019-03-16T07:06:12.043Z,33.80
2019-03-16T07:08:40.957Z,34.10
2019-03-16T07:11:08.226Z,34.00
2019-03-16T07:13:35.511Z,34.20
2019-03-16T07:16:02.738Z,34.00
2019-03-16T07:18:32.728Z,33.80
2019-03-16T07:26:24.079Z,33.30
2019-03-16T07:28:50.769Z,33.90
2019-03-16T07:36:49.449Z,33.60
2019-03-16T07:39:15.674Z,33.50
2019-03-16T07:41:46.091Z,33.60
2019-03-16T07:44:18.070Z,33.90
2019-03-16T07:46:45.308Z,33.80
2019-03-16T07:49:12.432Z,34.20
2019-03-16T07:51:39.715Z,34.50
2019-03-16T07:54:06.841Z,33.80
2019-03-16T07:56:33.984Z,33.60
2019-03-16T07:59:01.200Z,33.70
2019-03-16T08:01:28.409Z,33.60
2019-03-16T08:06:36.850Z,33.70
2019-03-16T08:09:04.099Z,33.80
2019-03-16T08:11:31.257Z,33.60
2019-03-16T08:13:59.734Z,33.70
2019-03-16T08:16:26.950Z,33.70
2019-03-16T08:18:54.059Z,33.60
2019-03-16T08:21:21.385Z,33.50
2019-03-16T08:23:48.837Z,33.50
2019-03-16T08:26:17.430Z,33.70
2019-03-16T08:28:44.807Z,33.70
2019-03-16T08:31:12.031Z,33.60
2019-03-16T08:33:39.400Z,33.70
2019-03-16T08:36:06.627Z,34.10
2019-03-16T08:52:43.491Z,33.90
2019-03-16T08:55:10.614Z,34.00
2019-03-16T08:57:37.818Z,33.70
2019-03-16T09:00:05.067Z,33.70
2019-03-16T09:02:32.547Z,33.70
2019-03-16T09:04:59.709Z,33.80
2019-03-16T09:07:26.932Z,33.80
2019-03-16T09:09:54.167Z,33.70
2019-03-16T09:12:22.663Z,33.80
2019-03-16T09:14:49.779Z,33.80
2019-03-16T09:17:28.633Z,33.70
2019-03-16T09:19:58.890Z,33.80
2019-03-16T09:22:26.178Z,33.90
2019-03-16T09:24:53.248Z,34.50
2019-03-16T09:27:30.548Z,33.80
2019-03-16T09:29:49.404Z,33.80
2019-03-16T09:32:17.024Z,33.80
2019-03-16T09:34:44.249Z,34.00
2019-03-16T09:37:11.326Z,34.00
2019-03-16T09:39:38.408Z,33.70
2019-03-16T09:42:05.615Z,33.80
2019-03-16T09:44:32.814Z,33.70
2019-03-16T09:47:00.021Z,33.60
2019-03-16T09:49:29.015Z,33.60
2019-03-16T09:51:56.101Z,33.60
2019-03-16T09:54:23.561Z,33.50
2019-03-16T09:57:00.691Z,33.60
2019-03-16T09:59:19.917Z,33.50
2019-03-16T10:01:47.364Z,33.60
2019-03-16T10:04:14.656Z,34.30
2019-03-16T10:06:41.763Z,33.70
2019-03-16T10:09:09.005Z,33.50
2019-03-16T10:11:36.252Z,33.60
2019-03-16T10:14:03.333Z,33.60
2019-03-16T10:16:39.792Z,33.60
2019-03-16T10:30:19.342Z,33.70
2019-03-16T11:07:33.142Z,33.90
2019-03-16T11:10:00.545Z,33.70
2019-03-16T11:12:27.900Z,34.00
2019-03-16T11:14:55.253Z,34.00
2019-03-16T11:17:23.628Z,34.00
2019-03-16T11:19:50.769Z,34.00
2019-03-16T11:22:17.820Z,34.10
2019-03-16T11:24:44.953Z,34.10
2019-03-16T11:27:17.151Z,34.00
2019-03-16T11:29:44.196Z,33.80
2019-03-16T11:32:11.636Z,33.90
2019-03-16T11:34:40.483Z,33.80
2019-03-16T11:37:07.578Z,33.90
2019-03-16T11:39:34.674Z,33.70
2019-03-16T11:42:01.984Z,33.80
2019-03-16T11:44:29.110Z,33.80
2019-03-16T11:46:56.246Z,33.90
2019-03-16T11:49:26.300Z,33.80
2019-03-16T11:51:53.727Z,33.90
2019-03-16T11:54:20.926Z,33.90
2019-03-16T11:56:48.130Z,33.90
2019-03-16T11:59:21.429Z,33.80
2019-03-16T12:02:04.616Z,33.90
2019-03-16T12:04:22.166Z,33.90
2019-03-16T12:06:49.596Z,33.80
2019-03-16T12:09:17.169Z,33.90
2019-03-16T12:11:47.896Z,33.80
2019-03-16T12:14:14.278Z,33.90
2019-03-16T12:16:41.454Z,33.90
2019-03-16T12:19:10.478Z,33.90
2019-03-16T12:21:37.852Z,33.90
2019-03-16T12:24:05.101Z,33.80
2019-03-16T12:26:37.187Z,33.80
2019-03-16T12:29:03.038Z,33.70
2019-03-16T12:34:06.877Z,33.70
2019-03-16T12:36:35.667Z,33.60
2019-03-16T12:39:02.883Z,33.70
2019-03-16T12:41:30.132Z,33.80
2019-03-16T12:43:57.308Z,33.70
2019-03-16T12:46:24.609Z,33.70
2019-03-16T12:48:51.856Z,33.60
2019-03-16T12:51:20.187Z,33.60
2019-03-16T12:53:49.101Z,33.70
2019-03-16T12:56:18.752Z,33.80
2019-03-16T12:59:10.875Z,33.90
2019-03-16T13:01:40.088Z,33.80
2019-03-16T13:04:07.161Z,34.30
2019-03-16T13:06:43.666Z,33.80
2019-03-16T13:09:18.618Z,33.80
2019-03-16T13:11:47.613Z,33.80
2019-03-16T13:14:14.895Z,33.40
2019-03-16T13:16:42.246Z,33.60
2019-03-16T13:19:12.635Z,33.60
2019-03-16T13:21:40.467Z,33.80
2019-03-16T13:24:17.348Z,34.00
2019-03-16T13:29:32.870Z,33.70
2019-03-16T13:32:02.794Z,33.70
2019-03-16T13:34:31.855Z,34.10
2019-03-16T13:37:01.020Z,34.00
2019-03-16T13:39:28.142Z,33.80
2019-03-16T13:41:55.546Z,34.00
2019-03-16T13:44:25.929Z,34.30
2019-03-16T13:46:54.917Z,33.90
2019-03-16T13:49:23.948Z,33.70
2019-03-16T13:54:59.625Z,33.70
2019-03-16T13:57:27.198Z,33.60
2019-03-16T13:59:58.014Z,33.60
2019-03-16T14:14:16.847Z,33.60
2019-03-16T14:16:47.738Z,33.60
2019-03-16T14:22:19.689Z,33.60
2019-03-16T14:24:50.098Z,33.80
2019-03-16T14:27:17.304Z,34.00
2019-03-16T14:29:55.571Z,33.80
2019-03-16T14:35:11.482Z,33.90
2019-03-16T14:37:41.162Z,33.80
2019-03-16T14:40:13.280Z,34.30
2019-03-16T14:42:43.631Z,33.60
2019-03-16T14:45:10.820Z,34.20
2019-03-16T14:50:25.180Z,34.20
2019-03-16T14:52:55.330Z,33.40
2019-03-16T14:55:22.509Z,33.50
2019-03-16T14:57:51.402Z,33.50
2019-03-16T15:00:18.624Z,33.50
2019-03-16T15:02:46.518Z,33.60
2019-03-16T15:05:15.131Z,33.50
2019-03-16T15:07:55.613Z,33.50
2019-03-16T15:10:35.155Z,33.50
2019-03-16T15:19:09.642Z,33.50
2019-03-16T15:21:36.876Z,33.40
2019-03-16T15:24:04.298Z,33.40
2019-03-16T15:26:31.502Z,33.90
2019-03-16T15:28:58.613Z,33.60
2019-03-16T15:31:25.777Z,33.50
2019-03-16T15:33:52.913Z,33.50
2019-03-16T15:36:20.342Z,33.50
2019-03-16T15:38:47.493Z,33.80
2019-03-16T15:41:14.578Z,33.70
2019-03-16T15:43:46.810Z,33.90
2019-03-16T15:46:17.185Z,33.80
2019-03-16T15:48:44.536Z,33.80
2019-03-16T15:51:11.925Z,33.70
2019-03-16T15:53:38.974Z,33.70
2019-03-16T15:56:06.580Z,33.60
2019-03-16T15:58:33.829Z,33.60
2019-03-16T16:01:05.491Z,33.60
2019-03-16T16:03:32.656Z,33.50
2019-03-16T16:05:59.932Z,33.60
2019-03-16T16:08:29.846Z,33.60
2019-03-16T16:11:04.741Z,33.50
2019-03-16T16:13:31.889Z,33.50
2019-03-16T16:15:59.153Z,33.60
2019-03-16T16:18:26.303Z,33.50
2019-03-16T16:20:53.384Z,33.40
2019-03-16T16:23:20.758Z,33.50
2019-03-16T16:25:48.102Z,33.50
2019-03-16T16:28:15.288Z,33.40
2019-03-16T16:30:42.561Z,33.30
2019-03-16T16:33:09.678Z,33.30
2019-03-16T16:35:37.181Z,33.40
2019-03-16T16:38:04.304Z,33.40
2019-03-16T16:40:32.503Z,33.50
2019-03-16T16:42:59.727Z,33.40
2019-03-16T16:45:28.694Z,33.50
2019-03-16T16:47:55.819Z,33.50
2019-03-16T16:50:23.076Z,33.60
2019-03-16T16:53:08.411Z,33.60
2019-03-16T16:55:35.520Z,34.00
2019-03-16T16:58:02.633Z,33.60
2019-03-16T17:03:19.655Z,33.50
2019-03-16T17:05:52.814Z,33.60
2019-03-16T17:08:20.233Z,33.60
2019-03-16T17:13:42.922Z,33.60
2019-03-16T17:16:11.789Z,33.60
2019-03-16T17:18:39.141Z,33.50
2019-03-16T17:21:06.390Z,33.50
2019-03-16T17:23:42.351Z,33.60
2019-03-16T17:26:09.902Z,33.70
2019-03-16T17:28:37.281Z,33.60
2019-03-16T17:31:04.919Z,33.70
2019-03-16T17:33:34.622Z,33.60
2019-03-16T17:36:12.591Z,33.60
2019-03-16T17:39:09.701Z,33.50
2019-03-16T17:41:25.886Z,33.50
2019-03-16T17:46:50.196Z,33.50
2019-03-16T17:49:17.425Z,33.50
2019-03-16T17:51:45.803Z,33.50
2019-03-16T17:54:12.946Z,33.50
2019-03-16T17:56:40.130Z,33.40
2019-03-16T17:59:09.104Z,33.40
2019-03-16T18:01:36.443Z,33.60
2019-03-16T18:04:03.720Z,33.70
2019-03-16T18:06:30.967Z,33.50
2019-03-16T18:08:58.170Z,33.50
2019-03-16T18:11:27.209Z,33.60
2019-03-16T18:13:54.209Z,33.50
2019-03-16T18:16:21.309Z,33.70
2019-03-16T18:18:48.527Z,33.60
2019-03-16T18:24:04.927Z,33.60
2019-03-16T18:26:35.303Z,33.50
2019-03-16T18:29:02.767Z,33.40
2019-03-16T18:31:31.607Z,33.30
2019-03-16T18:33:59.078Z,33.40
2019-03-16T18:36:28.968Z,33.30
2019-03-16T18:38:56.186Z,33.30
2019-03-16T18:41:23.533Z,33.40
2019-03-16T18:43:52.809Z,33.40
2019-03-16T18:46:21.815Z,33.40
2019-03-16T18:48:48.949Z,33.30
2019-03-16T18:51:16.104Z,33.30
2019-03-16T18:53:45.489Z,33.30
2019-03-16T19:00:31.622Z,33.40
2019-03-16T19:01:34.322Z,33.40
2019-03-16T19:04:01.678Z,33.40
2019-03-16T19:06:28.831Z,33.40
2019-03-16T19:08:56.083Z,33.40
2019-03-16T19:11:23.412Z,33.40
2019-03-16T19:13:51.895Z,33.40
2019-03-16T19:16:28.068Z,34.10
2019-03-16T19:18:55.219Z,33.40
2019-03-16T19:21:22.376Z,33.40
2019-03-16T19:23:49.968Z,33.30
2019-03-16T19:29:21.305Z,33.30
2019-03-16T19:32:00.750Z,33.30
2019-03-16T19:34:29.717Z,33.40
2019-03-16T19:36:57.222Z,33.20
2019-03-16T19:39:26.221Z,33.30
2019-03-16T19:41:55.183Z,33.40
2019-03-16T19:44:22.297Z,33.30
2019-03-16T19:46:49.514Z,33.30
2019-03-16T19:49:16.616Z,33.30
2019-03-16T19:51:44.088Z,33.40
2019-03-16T19:54:13.294Z,33.30
2019-03-16T19:56:40.847Z,33.30
2019-03-16T19:59:11.144Z,33.30
2019-03-16T20:01:49.073Z,33.30
2019-03-16T20:04:35.026Z,33.40
2019-03-16T20:06:52.895Z,33.50
2019-03-16T20:12:12.491Z,33.40
2019-03-16T20:14:39.640Z,33.60
2019-03-16T20:17:09.063Z,33.50
2019-03-16T20:19:36.399Z,33.50
2019-03-16T20:22:08.876Z,33.40
2019-03-16T20:24:44.708Z,33.40
2019-03-16T20:27:15.476Z,33.50
2019-03-16T20:29:48.347Z,33.40
2019-03-16T20:32:28.288Z,33.40
2019-03-16T20:35:02.301Z,33.40
2019-03-16T20:37:38.527Z,33.40
2019-03-16T20:40:06.233Z,33.40
2019-03-16T20:42:33.564Z,33.50
2019-03-16T20:45:00.714Z,33.60
2019-03-16T20:47:31.101Z,33.70
2019-03-16T20:49:57.351Z,33.90
2019-03-16T20:52:24.368Z,33.80
2019-03-16T20:54:51.432Z,33.90
2019-03-16T20:57:18.672Z,33.60
2019-03-16T20:59:45.775Z,33.50
2019-03-16T21:02:12.812Z,33.60
2019-03-16T21:04:40.541Z,33.50
2019-03-16T21:07:07.598Z,33.50
2019-03-16T21:09:34.676Z,33.40
2019-03-16T21:12:01.726Z,33.40
2019-03-16T21:14:29.037Z,33.50
2019-03-16T21:17:08.997Z,33.50
2019-03-16T21:19:44.327Z,33.40
2019-03-16T21:22:18.913Z,33.50
2019-03-16T21:24:57.245Z,33.60
2019-03-16T21:27:30.660Z,33.60
2019-03-16T21:30:03.646Z,33.60
2019-03-16T21:32:44.146Z,33.70
2019-03-16T21:35:20.551Z,33.60
2019-03-16T21:37:49.508Z,33.70
2019-03-16T21:40:22.653Z,33.60
2019-03-16T21:42:49.502Z,33.60
2019-03-16T21:45:30.046Z,33.70
2019-03-16T21:48:02.083Z,33.70
2019-03-16T21:50:31.748Z,33.60
2019-03-16T21:53:07.014Z,33.60
2019-03-16T21:55:32.964Z,33.60
2019-03-16T21:58:00.057Z,33.50
2019-03-16T22:00:27.196Z,33.50
2019-03-16T22:02:54.254Z,33.50
2019-03-16T22:05:21.529Z,33.50
2019-03-16T22:07:48.568Z,33.60
2019-03-16T22:10:15.636Z,33.60
2019-03-16T22:12:42.923Z,33.60
2019-03-16T22:15:10.123Z,33.60
2019-03-16T22:17:37.242Z,33.70
2019-03-16T22:20:04.278Z,33.60
2019-03-16T22:22:31.327Z,33.70
2019-03-16T22:24:58.520Z,33.60
2019-03-16T22:27:25.675Z,33.50
2019-03-16T22:29:53.136Z,33.40
2019-03-16T22:32:20.961Z,33.40
2019-03-16T22:34:48.181Z,33.30
2019-03-16T22:37:15.228Z,33.30
2019-03-16T22:39:42.336Z,33.30
2019-03-16T22:42:09.669Z,33.30
2019-03-16T22:44:36.751Z,33.30
2019-03-16T22:47:04.002Z,33.30
2019-03-16T22:49:31.040Z,33.20
2019-03-16T22:51:58.232Z,33.10
2019-03-16T22:54:28.196Z,33.10
2019-03-16T22:56:55.247Z,33.10
2019-03-16T22:59:22.689Z,33.00
2019-03-16T23:01:49.739Z,33.00
2019-03-16T23:04:18.269Z,32.80
2019-03-16T23:06:45.309Z,32.90
2019-03-16T23:09:12.424Z,33.00
2019-03-16T23:11:39.525Z,32.90
2019-03-16T23:14:06.663Z,32.80
2019-03-16T23:16:33.901Z,32.80
2019-03-16T23:19:00.972Z,32.80
2019-03-16T23:21:28.038Z,32.70
2019-03-16T23:23:55.255Z,33.40
2019-03-16T23:26:22.701Z,32.80
2019-03-16T23:28:49.764Z,32.70
2019-03-16T23:31:16.845Z,32.90
2019-03-16T23:33:44.058Z,32.80
2019-03-16T23:36:14.099Z,32.80
2019-03-16T23:38:41.240Z,32.80
2019-03-16T23:41:08.316Z,32.80
2019-03-16T23:43:35.539Z,32.90
2019-03-16T23:46:02.780Z,32.80
2019-03-16T23:54:00.615Z,32.70
2019-03-16T23:56:28.645Z,32.80
2019-03-16T23:59:03.211Z,32.70
